createdAt,value
2023-04-27T00:01:23.449Z,97091.73
2023-04-27T00:03:51.194Z,97086.36
2023-04-27T00:06:18.930Z,97090.36
2023-04-27T00:08:46.820Z,97092.28
2023-04-27T00:11:14.728Z,97090.56
2023-04-27T00:13:42.686Z,97095.21
2023-04-27T00:16:10.432Z,97094.74
2023-04-27T00:18:38.209Z,97093.41
2023-04-27T00:21:05.857Z,97092.04
2023-04-27T00:23:33.742Z,97090.13
2023-04-27T00:26:01.809Z,97086.36
2023-04-27T00:28:29.661Z,97086.36
2023-04-27T00:30:59.474Z,97095.49
2023-04-27T00:33:28.125Z,97096.46
2023-04-27T00:36:02.505Z,97098.83
2023-04-27T00:38:31.116Z,97099.80
2023-04-27T00:41:05.588Z,97098.36
2023-04-27T00:43:35.917Z,97095.73
2023-04-27T00:46:04.250Z,97105.09
2023-04-27T00:48:32.025Z,97102.48
2023-04-27T00:51:00.515Z,97110.27
2023-04-27T00:53:30.522Z,97100.98
2023-04-27T00:55:58.400Z,97102.08
2023-04-27T00:58:26.472Z,97100.78
2023-04-27T01:00:54.220Z,97104.77
2023-04-27T01:03:22.962Z,97103.47
2023-04-27T01:05:51.328Z,97106.44
2023-04-27T01:08:18.979Z,97110.26
2023-04-27T01:10:48.807Z,97120.91
2023-04-27T01:13:16.538Z,97119.34
2023-04-27T01:15:44.243Z,97124.70
2023-04-27T01:18:12.122Z,97122.36
2023-04-27T01:20:41.763Z,97130.90
2023-04-27T01:23:17.100Z,97124.24
2023-04-27T01:25:45.246Z,97127.51
2023-04-27T01:28:13.033Z,97124.39
2023-04-27T01:30:40.763Z,97139.36
2023-04-27T01:33:08.866Z,97132.47
2023-04-27T01:35:36.690Z,97133.31
2023-04-27T01:38:04.579Z,97129.08
2023-04-27T01:40:32.272Z,97134.70
2023-04-27T01:43:00.525Z,97129.16
2023-04-27T01:45:29.204Z,97134.23
2023-04-27T01:47:57.057Z,97134.87
2023-04-27T01:50:24.827Z,97132.86
2023-04-27T01:52:52.581Z,97134.81
2023-04-27T01:55:20.507Z,97141.24
2023-04-27T01:57:48.540Z,97140.48
2023-04-27T02:00:17.219Z,97139.17
2023-04-27T02:02:53.842Z,97141.89
2023-04-27T02:05:26.314Z,97142.47
2023-04-27T02:07:54.182Z,97148.06
2023-04-27T02:10:23.454Z,97149.98
2023-04-27T02:12:52.921Z,97145.48
2023-04-27T02:15:20.925Z,97147.94
2023-04-27T02:17:50.041Z,97151.81
2023-04-27T02:20:18.205Z,97157.55
2023-04-27T02:22:45.994Z,97161.38
2023-04-27T02:25:13.766Z,97156.14
2023-04-27T02:27:43.308Z,97159.62
2023-04-27T02:30:12.666Z,97156.23
2023-04-27T02:32:42.085Z,97155.48
2023-04-27T02:35:10.758Z,97166.66
2023-04-27T02:37:38.793Z,97165.14
2023-04-27T02:40:10.953Z,97175.80
2023-04-27T02:42:39.289Z,97178.75
2023-04-27T02:45:10.713Z,97182.21
2023-04-27T02:47:38.487Z,97183.53
2023-04-27T02:50:07.552Z,97180.63
2023-04-27T02:52:35.822Z,97188.84
2023-04-27T02:55:03.708Z,97185.14
2023-04-27T02:57:31.454Z,97188.84
2023-04-27T02:59:59.130Z,97193.59
2023-04-27T03:02:27.242Z,97193.34
2023-04-27T03:04:55.582Z,97188.30
2023-04-27T03:07:23.381Z,97195.47
2023-04-27T03:09:51.328Z,97199.21
2023-04-27T03:12:19.221Z,97203.44
2023-04-27T03:14:49.227Z,97205.57
2023-04-27T03:17:16.878Z,97210.63
2023-04-27T03:19:44.527Z,97214.84
2023-04-27T03:22:12.119Z,97214.05
2023-04-27T03:24:39.701Z,97220.69
2023-04-27T03:27:07.671Z,97227.05
2023-04-27T03:29:37.133Z,97227.09
2023-04-27T03:32:06.511Z,97230.80
2023-04-27T03:34:34.232Z,97231.09
2023-04-27T03:37:02.457Z,97243.04
2023-04-27T03:39:30.293Z,97240.67
2023-04-27T03:41:58.726Z,97247.02
2023-04-27T03:44:26.520Z,97250.22
2023-04-27T03:46:54.354Z,97254.75
2023-04-27T03:49:22.521Z,97253.42
2023-04-27T03:51:51.103Z,97256.33
2023-04-27T03:54:18.902Z,97259.50
2023-04-27T03:56:47.404Z,97263.73
2023-04-27T03:59:15.803Z,97268.26
2023-04-27T04:01:45.526Z,97271.16
2023-04-27T04:04:14.806Z,97274.59
2023-04-27T04:06:43.092Z,97276.17
2023-04-27T04:09:13.134Z,97282.26
2023-04-27T04:11:41.374Z,97278.77
2023-04-27T04:14:10.914Z,97281.95
2023-04-27T04:16:38.905Z,97282.98
2023-04-27T04:19:06.785Z,97277.05
2023-04-27T04:21:35.146Z,97280.13
2023-04-27T04:24:03.621Z,97276.68
2023-04-27T04:26:31.972Z,97283.62
2023-04-27T04:29:00.669Z,97282.38
2023-04-27T04:31:29.270Z,97285.25
2023-04-27T04:34:09.823Z,97284.20
2023-04-27T04:36:38.059Z,97289.42
2023-04-27T04:39:06.310Z,97289.88
2023-04-27T04:41:34.799Z,97291.42
2023-04-27T04:44:05.840Z,97287.08
2023-04-27T04:46:36.874Z,97298.58
2023-04-27T04:49:07.378Z,97300.86
2023-04-27T04:51:35.194Z,97299.61
2023-04-27T04:54:05.131Z,97302.83
2023-04-27T04:56:37.618Z,97295.54
2023-04-27T04:59:06.113Z,97302.23
2023-04-27T05:01:33.794Z,97312.31
2023-04-27T05:04:03.203Z,97307.14
2023-04-27T05:06:31.794Z,97307.00
2023-04-27T05:09:00.058Z,97304.71
2023-04-27T05:11:36.096Z,97308.73
2023-04-27T05:14:03.769Z,97312.95
2023-04-27T05:16:31.754Z,97318.23
2023-04-27T05:19:00.623Z,97312.85
2023-04-27T05:21:28.403Z,97323.22
2023-04-27T05:23:55.935Z,97321.47
2023-04-27T05:26:23.557Z,97324.30
2023-04-27T05:28:51.385Z,97321.32
2023-04-27T05:31:19.258Z,97323.51
2023-04-27T05:33:46.789Z,97325.47
2023-04-27T05:36:14.731Z,97329.58
2023-04-27T05:39:00.797Z,97322.55
2023-04-27T05:41:30.015Z,97322.83
2023-04-27T05:44:07.957Z,97321.11
2023-04-27T05:46:38.415Z,97318.66
2023-04-27T05:49:05.339Z,97323.42
2023-04-27T05:51:33.545Z,97318.68
2023-04-27T05:54:01.565Z,97324.11
2023-04-27T05:56:29.418Z,97322.02
2023-04-27T05:58:57.026Z,97322.50
2023-04-27T06:01:24.794Z,97327.02
2023-04-27T06:03:52.826Z,97331.84
2023-04-27T06:06:21.035Z,97330.51
2023-04-27T06:08:48.674Z,97334.80
2023-04-27T06:11:16.704Z,97327.70
2023-04-27T06:13:44.502Z,97336.14
2023-04-27T06:16:12.916Z,97336.00
2023-04-27T06:18:41.133Z,97338.08
2023-04-27T06:21:08.895Z,97339.71
2023-04-27T06:23:36.900Z,97347.25
2023-04-27T06:26:04.928Z,97343.88
2023-04-27T06:28:33.491Z,97341.50
2023-04-27T06:31:01.476Z,97340.11
2023-04-27T06:33:32.090Z,97345.00
2023-04-27T06:36:02.266Z,97342.00
2023-04-27T06:38:30.520Z,97334.77
2023-04-27T06:40:58.853Z,97340.53
2023-04-27T06:43:26.820Z,97336.77
2023-04-27T06:45:54.681Z,97334.28
2023-04-27T06:48:22.203Z,97338.05
2023-04-27T06:50:50.469Z,97335.36
2023-04-27T06:53:18.421Z,97330.40
2023-04-27T06:55:48.380Z,97333.37
2023-04-27T06:58:16.230Z,97329.22
2023-04-27T07:00:44.021Z,97337.59
2023-04-27T07:03:11.960Z,97338.20
2023-04-27T07:05:39.898Z,97333.57
2023-04-27T07:08:08.731Z,97332.21
2023-04-27T07:10:36.905Z,97333.83
2023-04-27T07:13:06.344Z,97346.55
2023-04-27T07:15:34.516Z,97340.98
2023-04-27T07:18:02.364Z,97339.62
2023-04-27T07:20:30.664Z,97344.22
2023-04-27T07:22:58.516Z,97345.42
2023-04-27T07:25:26.122Z,97342.66
2023-04-27T07:27:54.696Z,97342.48
2023-04-27T07:30:24.008Z,97342.58
2023-04-27T07:32:54.214Z,97340.55
2023-04-27T07:35:22.006Z,97344.42
2023-04-27T07:37:50.812Z,97336.85
2023-04-27T07:40:21.684Z,97345.20
2023-04-27T07:42:50.591Z,97340.19
2023-04-27T07:45:18.224Z,97335.44
2023-04-27T07:47:46.133Z,97346.53
2023-04-27T07:50:15.799Z,97333.95
2023-04-27T07:52:43.946Z,97330.22
2023-04-27T07:55:11.756Z,97340.66
2023-04-27T07:57:39.289Z,97334.75
2023-04-27T08:00:10.426Z,97336.68
2023-04-27T08:02:40.077Z,97339.38
2023-04-27T08:05:09.053Z,97339.52
2023-04-27T08:07:42.526Z,97333.84
2023-04-27T08:10:08.258Z,97338.04
2023-04-27T08:12:39.219Z,97330.92
2023-04-27T08:15:08.186Z,97336.48
2023-04-27T08:17:36.699Z,97344.95
2023-04-27T08:20:06.693Z,97346.05
2023-04-27T08:22:34.265Z,97346.77
2023-04-27T08:25:03.798Z,97348.03
2023-04-27T08:27:32.803Z,97350.06
2023-04-27T08:30:01.173Z,97348.87
2023-04-27T08:32:29.080Z,97344.62
2023-04-27T08:34:58.892Z,97351.62
2023-04-27T08:37:27.971Z,97343.31
2023-04-27T08:39:56.455Z,97346.65
2023-04-27T08:42:24.679Z,97345.50
2023-04-27T08:44:53.392Z,97341.07
2023-04-27T08:47:28.387Z,97332.70
2023-04-27T08:49:53.754Z,97334.62
2023-04-27T08:52:21.696Z,97337.97
2023-04-27T08:54:49.386Z,97348.66
2023-04-27T08:57:17.206Z,97343.25
2023-04-27T08:59:45.455Z,97340.63
2023-04-27T09:02:20.864Z,97338.58
2023-04-27T09:04:48.648Z,97347.75
2023-04-27T09:07:18.257Z,97336.45
2023-04-27T09:09:47.966Z,97338.42
2023-04-27T09:12:20.872Z,97332.95
2023-04-27T09:15:05.929Z,97334.02
2023-04-27T09:17:33.685Z,97334.16
2023-04-27T09:20:12.037Z,97334.17
2023-04-27T09:22:47.988Z,97338.33
2023-04-27T09:25:33.426Z,97334.75
2023-04-27T09:28:01.857Z,97340.27
2023-04-27T09:30:30.286Z,97343.02
2023-04-27T09:33:02.128Z,97344.39
2023-04-27T09:35:32.858Z,97345.21
2023-04-27T09:38:01.187Z,97349.27
2023-04-27T09:40:31.467Z,97344.29
2023-04-27T09:43:05.594Z,97342.23
2023-04-27T09:45:35.992Z,97344.66
2023-04-27T09:48:05.773Z,97343.98
2023-04-27T09:50:43.242Z,97346.74
2023-04-27T09:53:15.177Z,97351.48
2023-04-27T09:55:57.465Z,97351.62
2023-04-27T09:58:50.924Z,97347.70
2023-04-27T10:01:46.825Z,97356.91
2023-04-27T10:04:52.099Z,97358.27
2023-04-27T10:07:20.592Z,97349.52
2023-04-27T10:09:51.719Z,97357.14
2023-04-27T10:12:29.941Z,97359.50
2023-04-27T10:15:01.716Z,97361.42
2023-04-27T10:17:35.812Z,97358.69
2023-04-27T10:20:08.456Z,97357.98
2023-04-27T10:22:49.769Z,97356.19
2023-04-27T10:25:25.991Z,97361.18
2023-04-27T10:28:01.663Z,97360.15
2023-04-27T10:30:39.692Z,97356.35
2023-04-27T10:33:14.384Z,97363.76
2023-04-27T10:35:46.667Z,97358.93
2023-04-27T10:38:22.163Z,97367.52
2023-04-27T10:41:01.740Z,97373.21
2023-04-27T10:43:34.064Z,97363.17
2023-04-27T10:46:14.744Z,97366.08
2023-04-27T10:48:43.680Z,97369.09
2023-04-27T10:51:16.959Z,97372.06
2023-04-27T10:53:48.648Z,97374.06
2023-04-27T10:56:19.038Z,97375.11
2023-04-27T10:58:56.922Z,97371.37
2023-04-27T11:01:33.957Z,97379.55
2023-04-27T11:04:10.127Z,97374.72
2023-04-27T11:06:49.333Z,97380.55
2023-04-27T11:09:28.070Z,97372.55
2023-04-27T11:11:56.174Z,97372.94
2023-04-27T11:14:24.208Z,97374.47
2023-04-27T11:16:52.836Z,97370.55
2023-04-27T11:19:20.820Z,97371.77
2023-04-27T11:21:49.585Z,97373.75
2023-04-27T11:24:17.321Z,97372.88
2023-04-27T11:26:51.912Z,97371.78
2023-04-27T11:29:19.940Z,97372.81
2023-04-27T11:31:50.919Z,97371.94
2023-04-27T11:34:22.852Z,97376.44
2023-04-27T11:39:38.421Z,97381.54
2023-04-27T11:42:25.413Z,97376.95
2023-04-27T11:45:02.320Z,97373.81
2023-04-27T11:47:33.178Z,97366.67
2023-04-27T11:50:05.256Z,97369.03
2023-04-27T11:52:39.638Z,97377.70
2023-04-27T11:55:11.287Z,97371.28
2023-04-27T11:57:39.622Z,97377.76
2023-04-27T12:00:13.521Z,97382.12
2023-04-27T12:02:42.808Z,97380.41
2023-04-27T12:05:12.587Z,97380.52
2023-04-27T12:07:42.831Z,97380.30
2023-04-27T12:10:11.717Z,97388.79
2023-04-27T12:12:45.971Z,97388.59
2023-04-27T12:15:17.217Z,97391.54
2023-04-27T12:17:54.458Z,97382.52
2023-04-27T12:20:23.221Z,97386.21
2023-04-27T12:22:54.335Z,97385.45
2023-04-27T12:25:22.168Z,97383.77
2023-04-27T12:27:49.740Z,97387.15
2023-04-27T12:30:17.894Z,97391.55
2023-04-27T12:32:46.203Z,97383.33
2023-04-27T12:35:14.326Z,97386.72
2023-04-27T12:37:42.134Z,97389.19
2023-04-27T12:40:10.587Z,97385.13
2023-04-27T12:42:39.378Z,97383.67
2023-04-27T12:45:08.199Z,97379.28
2023-04-27T12:50:06.689Z,97386.36
2023-04-27T12:52:34.512Z,97384.79
2023-04-27T12:55:02.475Z,97389.19
2023-04-27T12:57:30.061Z,97387.61
2023-04-27T13:00:01.542Z,97391.20
2023-04-27T13:02:27.278Z,97393.92
2023-04-27T13:04:56.073Z,97387.05
2023-04-27T13:07:23.909Z,97396.28
2023-04-27T13:09:51.435Z,97399.98
2023-04-27T13:12:19.195Z,97405.83
2023-04-27T13:14:47.061Z,97406.26
2023-04-27T13:17:14.704Z,97403.19
2023-04-27T13:19:42.511Z,97408.03
2023-04-27T13:22:10.136Z,97407.56
2023-04-27T13:24:37.946Z,97409.08
2023-04-27T13:27:05.430Z,97411.75
2023-04-27T13:29:34.851Z,97408.78
2023-04-27T13:32:04.674Z,97411.70
2023-04-27T13:34:32.752Z,97411.06
2023-04-27T13:37:00.455Z,97425.66
2023-04-27T13:39:28.478Z,97416.23
2023-04-27T13:41:57.087Z,97425.14
2023-04-27T13:44:25.060Z,97423.31
2023-04-27T13:46:52.941Z,97424.27
2023-04-27T13:49:23.438Z,97423.45
2023-04-27T13:51:51.325Z,97424.59
2023-04-27T13:54:21.171Z,97426.06
2023-04-27T13:56:49.153Z,97428.41
2023-04-27T13:59:16.940Z,97439.41
2023-04-27T14:01:45.038Z,97438.14
2023-04-27T14:04:13.042Z,97439.74
2023-04-27T14:06:41.583Z,97438.58
2023-04-27T14:09:09.364Z,97443.48
2023-04-27T14:11:48.495Z,97439.64
2023-04-27T14:14:06.929Z,97439.04
2023-04-27T14:16:36.125Z,97441.64
2023-04-27T14:19:03.825Z,97445.83
2023-04-27T14:21:31.650Z,97444.08
2023-04-27T14:23:59.285Z,97448.30
2023-04-27T14:26:27.145Z,97447.56
2023-04-27T14:28:58.497Z,97440.81
2023-04-27T14:31:29.652Z,97443.45
2023-04-27T14:33:57.281Z,97444.80
2023-04-27T14:36:25.242Z,97443.09
2023-04-27T14:38:52.894Z,97450.84
2023-04-27T14:41:21.910Z,97455.56
2023-04-27T14:43:49.714Z,97454.65
2023-04-27T14:46:20.818Z,97459.95
2023-04-27T14:48:48.618Z,97459.61
2023-04-27T14:51:17.085Z,97466.67
2023-04-27T14:53:49.788Z,97468.67
2023-04-27T14:56:20.277Z,97466.80
2023-04-27T14:58:48.317Z,97469.55
2023-04-27T15:01:20.388Z,97470.41
2023-04-27T15:03:50.494Z,97473.86
2023-04-27T15:06:19.875Z,97469.42
2023-04-27T15:08:49.620Z,97463.27
2023-04-27T15:11:17.581Z,97472.59
2023-04-27T15:13:45.211Z,97473.23
2023-04-27T15:16:15.002Z,97467.94
2023-04-27T15:18:43.137Z,97475.87
2023-04-27T15:21:12.489Z,97475.27
2023-04-27T15:23:43.201Z,97475.44
2023-04-27T15:29:27.515Z,97474.61
2023-04-27T15:31:55.344Z,97479.80
2023-04-27T15:34:25.254Z,97471.25
2023-04-27T15:36:54.882Z,97476.70
2023-04-27T15:39:29.678Z,97472.77
2023-04-27T15:46:24.133Z,97473.41
2023-04-27T16:11:17.276Z,97501.14
2023-04-27T16:13:48.874Z,97502.42
2023-04-27T16:16:17.308Z,97499.58
2023-04-27T16:18:45.293Z,97506.97
2023-04-27T16:21:12.939Z,97509.88
2023-04-27T16:23:40.792Z,97509.84
2023-04-27T16:26:08.685Z,97520.41
2023-04-27T16:28:36.586Z,97518.11
2023-04-27T16:31:04.529Z,97516.61
2023-04-27T16:33:33.583Z,97519.35
2023-04-27T16:36:02.069Z,97524.31
2023-04-27T16:38:29.864Z,97525.25
2023-04-27T16:40:57.972Z,97534.94
2023-04-27T16:43:25.548Z,97537.45
2023-04-27T16:45:55.192Z,97537.53
2023-04-27T16:48:23.927Z,97539.72
2023-04-27T16:50:53.184Z,97539.23
2023-04-27T16:53:21.688Z,97540.56
2023-04-27T16:55:49.440Z,97541.39
2023-04-27T16:58:21.341Z,97542.00
2023-04-27T17:00:49.122Z,97543.89
2023-04-27T17:03:18.509Z,97548.70
2023-04-27T17:05:47.632Z,97547.92
2023-04-27T17:08:18.405Z,97553.28
2023-04-27T17:10:46.349Z,97552.55
2023-04-27T17:13:16.917Z,97552.38
2023-04-27T17:15:47.267Z,97562.05
2023-04-27T17:18:16.535Z,97557.06
2023-04-27T17:21:04.734Z,97562.17
2023-04-27T17:23:40.983Z,97567.91
2023-04-27T17:26:11.801Z,97568.28
2023-04-27T17:28:46.762Z,97574.86
2023-04-27T17:31:16.974Z,97577.18
2023-04-27T17:33:48.196Z,97581.86
2023-04-27T17:36:16.440Z,97584.17
2023-04-27T17:38:43.822Z,97584.31
2023-04-27T17:41:11.628Z,97590.27
2023-04-27T17:43:39.266Z,97596.00
2023-04-27T17:46:09.181Z,97598.78
2023-04-27T17:48:41.697Z,97597.56
2023-04-27T17:51:09.653Z,97606.67
2023-04-27T17:53:40.410Z,97608.33
2023-04-27T17:56:11.131Z,97616.13
2023-04-27T17:58:39.282Z,97614.29
2023-04-27T18:01:11.624Z,97615.16
2023-04-27T18:03:41.329Z,97620.02
2023-04-27T18:06:09.075Z,97619.77
2023-04-27T18:08:40.295Z,97631.27
2023-04-27T18:11:08.403Z,97625.46
2023-04-27T18:13:37.254Z,97632.78
2023-04-27T18:16:07.256Z,97630.16
2023-04-27T18:18:35.778Z,97638.23
2023-04-27T18:21:07.208Z,97640.67
2023-04-27T18:23:40.735Z,97647.41
2023-04-27T18:26:10.335Z,97649.34
2023-04-27T18:28:39.661Z,97654.70
2023-04-27T18:31:16.403Z,97660.37
2023-04-27T18:33:45.125Z,97656.63
2023-04-27T18:36:13.161Z,97666.01
2023-04-27T18:38:43.438Z,97661.47
2023-04-27T18:41:11.221Z,97669.23
2023-04-27T18:43:42.875Z,97668.95
2023-04-27T18:46:13.764Z,97678.80
2023-04-27T18:48:45.872Z,97674.00
2023-04-27T18:51:14.555Z,97687.34
2023-04-27T18:53:42.301Z,97686.28
2023-04-27T18:56:10.562Z,97690.30
2023-04-27T18:58:40.056Z,97700.49
2023-04-27T19:01:08.026Z,97703.96
2023-04-27T19:03:36.922Z,97704.00
2023-04-27T19:06:05.055Z,97706.98
2023-04-27T19:08:34.065Z,97706.68
2023-04-27T19:11:04.127Z,97713.92
2023-04-27T19:13:32.049Z,97712.03
2023-04-27T19:16:08.548Z,97710.38
2023-04-27T19:18:37.545Z,97707.19
2023-04-27T19:21:06.334Z,97713.57
2023-04-27T19:23:35.503Z,97713.57
2023-04-27T19:26:12.325Z,97713.33
2023-04-27T19:28:33.777Z,97719.23
2023-04-27T19:31:04.504Z,97719.23
2023-04-27T19:33:35.389Z,97718.73
2023-04-27T19:36:27.551Z,97723.30
2023-04-27T19:38:56.967Z,97728.10
2023-04-27T19:41:25.323Z,97727.00
2023-04-27T19:43:53.564Z,97731.02
2023-04-27T19:46:21.475Z,97726.45
2023-04-27T19:48:49.237Z,97731.81
2023-04-27T19:51:16.814Z,97732.66
2023-04-27T19:53:44.954Z,97736.17
2023-04-27T19:56:12.834Z,97733.77
2023-04-27T19:58:42.147Z,97736.13
2023-04-27T20:01:12.305Z,97738.27
2023-04-27T20:03:40.185Z,97739.84
2023-04-27T20:06:09.691Z,97744.92
2023-04-27T20:08:37.394Z,97744.61
2023-04-27T20:11:05.449Z,97745.95
2023-04-27T20:13:33.193Z,97745.95
2023-04-27T20:16:01.195Z,97746.22
2023-04-27T20:18:30.857Z,97745.66
2023-04-27T20:20:59.261Z,97738.18
2023-04-27T20:23:27.543Z,97739.56
2023-04-27T20:25:55.517Z,97742.04
2023-04-27T20:28:25.373Z,97743.77
2023-04-27T20:30:55.776Z,97743.64
2023-04-27T20:33:24.364Z,97734.70
2023-04-27T20:35:55.567Z,97736.77
2023-04-27T20:38:23.740Z,97729.91
2023-04-27T20:40:53.062Z,97733.95
2023-04-27T20:43:26.163Z,97741.47
2023-04-27T20:45:53.948Z,97742.33
2023-04-27T20:48:28.467Z,97740.54
2023-04-27T20:50:59.528Z,97723.36
2023-04-27T20:53:27.863Z,97740.38
2023-04-27T20:55:56.637Z,97739.06
2023-04-27T20:58:25.865Z,97736.73
2023-04-27T21:00:55.910Z,97741.88
2023-04-27T21:03:26.227Z,97740.33
2023-04-27T21:05:54.363Z,97736.66
2023-04-27T21:08:22.446Z,97729.45
2023-04-27T21:10:50.781Z,97742.58
2023-04-27T21:13:19.274Z,97738.61
2023-04-27T21:15:47.745Z,97727.67
2023-04-27T21:18:29.105Z,97732.71
2023-04-27T21:20:46.526Z,97731.89
2023-04-27T21:23:14.986Z,97730.79
2023-04-27T21:25:46.717Z,97733.44
2023-04-27T21:28:15.042Z,97734.73
2023-04-27T21:30:43.350Z,97739.78
2023-04-27T21:33:11.429Z,97742.42
2023-04-27T21:35:40.163Z,97737.63
2023-04-27T21:38:08.183Z,97743.48
2023-04-27T21:40:38.769Z,97738.20
2023-04-27T21:43:07.330Z,97735.02
2023-04-27T21:45:35.711Z,97743.28
2023-04-27T21:48:05.897Z,97742.25
2023-04-27T21:50:33.672Z,97753.25
2023-04-27T21:53:01.450Z,97755.11
2023-04-27T21:55:29.353Z,97759.12
2023-04-27T21:57:57.174Z,97750.88
2023-04-27T22:00:25.281Z,97757.30
2023-04-27T22:02:55.400Z,97755.44
2023-04-27T22:05:23.523Z,97754.65
2023-04-27T22:07:52.937Z,97759.00
2023-04-27T22:10:22.550Z,97754.23
2023-04-27T22:12:50.460Z,97754.81
2023-04-27T22:15:19.842Z,97755.66
2023-04-27T22:17:47.889Z,97758.36
2023-04-27T22:20:15.889Z,97761.86
2023-04-27T22:22:44.230Z,97762.70
2023-04-27T22:25:15.308Z,97766.50
2023-04-27T22:27:45.476Z,97759.84
2023-04-27T22:30:14.948Z,97764.41
2023-04-27T22:32:45.227Z,97762.55
2023-04-27T22:35:24.717Z,97760.42
2023-04-27T22:37:46.924Z,97760.42
2023-04-27T22:40:15.284Z,97763.34
2023-04-27T22:42:43.285Z,97765.74
2023-04-27T22:45:12.541Z,97764.43
2023-04-27T22:47:40.944Z,97761.52
2023-04-27T22:50:10.588Z,97764.22
2023-04-27T22:52:41.596Z,97770.35
2023-04-27T22:55:11.180Z,97771.75
2023-04-27T22:57:39.747Z,97774.99
2023-04-27T23:00:10.496Z,97771.56
2023-04-27T23:02:39.875Z,97771.80
2023-04-27T23:05:08.845Z,97773.93
2023-04-27T23:07:36.741Z,97771.26
2023-04-27T23:10:05.576Z,97767.55
2023-04-27T23:12:33.602Z,97766.24
2023-04-27T23:15:01.911Z,97770.00
2023-04-27T23:17:32.713Z,97769.16
2023-04-27T23:20:02.012Z,97769.48
2023-04-27T23:22:29.822Z,97772.52
2023-04-27T23:24:57.712Z,97775.53
2023-04-27T23:27:25.523Z,97768.69
2023-04-27T23:29:53.204Z,97775.88
2023-04-27T23:32:21.202Z,97775.39
2023-04-27T23:34:48.905Z,97775.15
2023-04-27T23:37:16.757Z,97780.27
2023-04-27T23:39:44.379Z,97776.78
2023-04-27T23:42:12.177Z,97772.28
2023-04-27T23:44:40.030Z,97766.95
2023-04-27T23:47:08.252Z,97775.34
2023-04-27T23:49:35.998Z,97771.06
2023-04-27T23:52:04.584Z,97774.03
2023-04-27T23:54:32.628Z,97770.86
2023-04-27T23:57:00.870Z,97769.30
2023-04-27T23:59:28.818Z,97770.69
